createdAt,value
2019-05-09T00:00:04.346Z,75.96
2019-05-09T00:03:29.355Z,75.93
2019-05-09T00:06:54.443Z,76.67
2019-05-09T00:10:17.415Z,76.39
2019-05-09T00:13:40.481Z,76.32
2019-05-09T00:17:03.871Z,76.65
2019-05-09T00:20:47.633Z,76.08
2019-05-09T00:24:10.782Z,76.96
2019-05-09T00:27:34.113Z,76.60
2019-05-09T00:31:05.557Z,76.26
2019-05-09T00:34:36.218Z,76.00
2019-05-09T00:38:19.000Z,76.28
2019-05-09T00:41:43.527Z,76.17
2019-05-09T00:45:10.216Z,76.23
2019-05-09T00:48:39.679Z,75.92
2019-05-09T00:52:03.629Z,75.72
2019-05-09T00:55:28.220Z,76.43
2019-05-09T00:58:53.235Z,75.56
2019-05-09T01:02:16.184Z,75.23
2019-05-09T01:05:39.340Z,76.01
2019-05-09T01:09:04.428Z,75.48
2019-05-09T01:12:27.491Z,74.36
2019-05-09T01:15:50.517Z,75.14
2019-05-09T01:19:14.206Z,74.59
2019-05-09T01:22:37.369Z,74.69
2019-05-09T01:26:00.548Z,75.43
2019-05-09T01:29:23.606Z,74.84
2019-05-09T01:33:06.292Z,75.78
2019-05-09T01:36:48.043Z,74.77
2019-05-09T01:40:13.203Z,75.12
2019-05-09T01:43:36.749Z,75.58
2019-05-09T01:46:59.905Z,74.67
2019-05-09T01:50:23.386Z,74.86
2019-05-09T01:53:53.187Z,75.07
2019-05-09T01:57:16.347Z,74.71
2019-05-09T02:00:39.375Z,75.03
2019-05-09T02:04:04.053Z,74.93
2019-05-09T02:07:27.317Z,75.58
2019-05-09T02:10:50.743Z,76.40
2019-05-09T02:14:16.127Z,76.15
2019-05-09T02:18:05.353Z,76.83
2019-05-09T02:21:28.855Z,75.28
2019-05-09T02:24:53.473Z,75.79
2019-05-09T02:28:16.705Z,75.10
2019-05-09T02:31:39.697Z,74.68
2019-05-09T02:35:05.250Z,74.69
2019-05-09T02:38:28.850Z,76.10
2019-05-09T02:42:05.037Z,75.43
2019-05-09T02:45:19.274Z,75.47
2019-05-09T02:48:42.619Z,77.47
2019-05-09T02:52:08.664Z,77.27
2019-05-09T02:55:30.814Z,76.78
2019-05-09T02:59:00.702Z,76.79
2019-05-09T03:02:31.148Z,76.73
2019-05-09T03:05:54.109Z,76.64
2019-05-09T03:09:19.009Z,76.90
2019-05-09T03:12:42.273Z,76.40
2019-05-09T03:16:11.893Z,77.04
2019-05-09T03:19:38.610Z,76.62
2019-05-09T03:23:00.989Z,76.34
2019-05-09T03:26:29.243Z,75.97
2019-05-09T03:29:58.704Z,76.65
2019-05-09T03:33:20.555Z,76.34
2019-05-09T03:36:43.759Z,76.66
2019-05-09T03:40:07.884Z,77.63
2019-05-09T03:43:31.447Z,77.35
2019-05-09T03:47:08.422Z,77.43
2019-05-09T03:50:31.881Z,76.86
2019-05-09T03:53:54.948Z,78.33
2019-05-09T03:57:28.216Z,78.95
2019-05-09T04:00:50.999Z,78.52
2019-05-09T04:04:14.251Z,78.90
2019-05-09T04:07:38.441Z,78.69
2019-05-09T04:11:01.813Z,78.91
2019-05-09T04:14:28.168Z,79.27
2019-05-09T04:17:51.488Z,79.47
2019-05-09T04:21:14.591Z,80.13
2019-05-09T04:24:38.377Z,80.25
2019-05-09T04:28:02.746Z,79.92
2019-05-09T04:31:28.026Z,79.26
2019-05-09T04:34:52.399Z,79.66
2019-05-09T04:38:17.747Z,80.35
2019-05-09T04:41:40.585Z,79.60
2019-05-09T04:45:14.571Z,78.95
2019-05-09T04:48:37.759Z,78.17
2019-05-09T04:52:00.822Z,78.47
2019-05-09T04:55:27.352Z,78.88
2019-05-09T04:58:50.582Z,78.07
2019-05-09T05:02:38.204Z,78.01
2019-05-09T05:06:01.559Z,78.00
2019-05-09T05:09:24.730Z,77.75
2019-05-09T05:12:48.424Z,77.44
2019-05-09T05:16:11.554Z,76.33
2019-05-09T05:19:36.209Z,76.14
2019-05-09T05:23:18.495Z,75.05
2019-05-09T05:26:41.497Z,74.51
2019-05-09T05:30:07.478Z,74.63
2019-05-09T05:33:45.707Z,74.97
2019-05-09T05:37:12.287Z,73.27
2019-05-09T05:40:43.246Z,72.92
2019-05-09T05:44:00.254Z,73.84
2019-05-09T05:47:30.050Z,73.79
2019-05-09T05:50:54.122Z,74.77
2019-05-09T05:54:21.110Z,74.36
2019-05-09T05:57:44.170Z,74.30
2019-05-09T06:01:08.203Z,73.79
2019-05-09T06:04:31.530Z,73.37
2019-05-09T06:07:57.486Z,72.46
2019-05-09T06:11:20.453Z,72.30
2019-05-09T06:14:43.563Z,73.27
2019-05-09T06:18:07.934Z,73.23
2019-05-09T06:21:31.336Z,74.55
2019-05-09T06:24:54.397Z,72.63
2019-05-09T06:28:18.256Z,73.37
2019-05-09T06:31:41.745Z,74.17
2019-05-09T06:35:05.002Z,73.45
2019-05-09T06:38:28.360Z,74.22
2019-05-09T06:41:51.629Z,71.94
2019-05-09T06:46:02.051Z,71.39
2019-05-09T06:49:31.733Z,72.26
2019-05-09T06:52:54.045Z,72.06
2019-05-09T06:56:17.831Z,72.35
2019-05-09T06:59:41.047Z,71.34
2019-05-09T07:03:14.413Z,71.50
2019-05-09T07:06:41.514Z,71.35
2019-05-09T07:10:07.407Z,70.23
2019-05-09T07:13:31.682Z,70.09
2019-05-09T07:16:55.385Z,70.19
2019-05-09T07:20:18.446Z,69.50
2019-05-09T07:23:41.475Z,68.50
2019-05-09T07:27:04.784Z,68.88
2019-05-09T07:30:57.354Z,68.81
2019-05-09T07:34:47.456Z,68.04
2019-05-09T07:38:11.329Z,68.05
2019-05-09T07:41:34.362Z,68.22
2019-05-09T07:44:59.153Z,67.59
2019-05-09T07:48:22.511Z,67.21
2019-05-09T07:51:47.649Z,66.64
2019-05-09T07:55:10.590Z,66.49
2019-05-09T07:58:33.612Z,66.53
2019-05-09T08:01:58.168Z,65.38
2019-05-09T08:05:28.168Z,65.88
2019-05-09T08:08:51.278Z,64.75
2019-05-09T08:12:14.336Z,65.34
2019-05-09T08:15:38.441Z,63.89
2019-05-09T08:19:01.842Z,63.40
2019-05-09T08:22:31.548Z,63.81
2019-05-09T08:25:51.143Z,63.96
2019-05-09T08:29:14.733Z,63.72
2019-05-09T08:32:38.059Z,63.01
2019-05-09T08:36:01.561Z,63.43
2019-05-09T08:39:24.725Z,62.10
2019-05-09T08:42:48.207Z,60.74
2019-05-09T08:46:12.334Z,60.42
2019-05-09T08:49:49.437Z,59.95
2019-05-09T08:53:12.289Z,58.22
2019-05-09T08:56:35.340Z,57.99
2019-05-09T08:59:59.033Z,58.81
2019-05-09T09:03:22.764Z,57.49
2019-05-09T09:06:48.279Z,55.84
2019-05-09T09:10:11.978Z,57.47
2019-05-09T09:13:35.043Z,53.52
2019-05-09T09:16:58.080Z,52.83
2019-05-09T09:20:22.133Z,54.22
2019-05-09T09:23:49.734Z,53.44
2019-05-09T09:27:10.789Z,53.00
2019-05-09T09:30:33.849Z,51.69
2019-05-09T09:33:58.585Z,51.81
2019-05-09T09:37:22.325Z,51.86
2019-05-09T09:40:47.584Z,52.43
2019-05-09T09:44:10.769Z,52.92
2019-05-09T09:47:33.955Z,51.41
2019-05-09T09:50:57.971Z,53.53
2019-05-09T09:54:21.568Z,52.52
2019-05-09T09:57:44.639Z,49.51
2019-05-09T10:01:28.717Z,49.79
2019-05-09T10:04:51.261Z,52.09
2019-05-09T10:08:14.432Z,50.63
2019-05-09T10:11:37.977Z,49.37
2019-05-09T10:15:29.759Z,49.38
2019-05-09T10:19:18.613Z,49.93
2019-05-09T10:22:46.503Z,50.18
2019-05-09T10:26:08.501Z,48.97
2019-05-09T10:29:31.869Z,49.51
2019-05-09T10:32:55.013Z,46.36
2019-05-09T10:36:18.126Z,48.03
2019-05-09T10:39:42.059Z,46.82
2019-05-09T10:43:35.963Z,48.45
2019-05-09T10:47:12.042Z,50.59
2019-05-09T10:50:43.172Z,44.67
2019-05-09T10:54:00.569Z,41.04
2019-05-09T10:57:23.963Z,41.31
2019-05-09T11:00:48.300Z,40.31
2019-05-09T11:04:11.663Z,41.85
2019-05-09T11:07:35.140Z,42.09
2019-05-09T11:10:58.184Z,45.58
2019-05-09T11:14:32.179Z,42.58
2019-05-09T11:17:47.429Z,43.73
2019-05-09T11:21:11.097Z,44.55
2019-05-09T11:24:44.899Z,48.41
2019-05-09T11:28:10.978Z,46.28
2019-05-09T11:31:25.072Z,47.49
2019-05-09T11:34:48.741Z,46.82
2019-05-09T11:38:12.343Z,47.54
2019-05-09T11:41:38.384Z,46.18
2019-05-09T11:45:01.863Z,46.88
2019-05-09T11:48:25.029Z,44.80
2019-05-09T11:51:48.383Z,43.57
2019-05-09T11:55:28.814Z,45.08
2019-05-09T11:58:37.961Z,45.08
2019-05-09T12:02:01.427Z,44.25
2019-05-09T12:05:24.445Z,43.13
2019-05-09T12:08:48.254Z,39.80
2019-05-09T12:12:11.781Z,40.82
2019-05-09T12:15:34.849Z,38.92
2019-05-09T12:18:58.382Z,33.44
2019-05-09T12:22:21.828Z,35.22
2019-05-09T12:25:44.967Z,32.99
2019-05-09T12:29:08.763Z,32.64
2019-05-09T12:32:32.245Z,37.27
2019-05-09T12:35:55.373Z,37.92
2019-05-09T12:39:18.910Z,37.54
2019-05-09T12:42:42.252Z,36.17
2019-05-09T12:46:08.461Z,36.44
2019-05-09T12:49:30.284Z,37.16
2019-05-09T12:52:53.385Z,36.54
2019-05-09T12:56:18.790Z,37.72
2019-05-09T12:59:49.004Z,38.93
2019-05-09T13:03:08.392Z,40.95
2019-05-09T13:06:31.735Z,40.36
2019-05-09T13:09:54.754Z,40.92
2019-05-09T13:13:19.649Z,41.57
2019-05-09T13:17:04.449Z,39.60
2019-05-09T13:20:28.582Z,41.50
2019-05-09T13:23:52.580Z,42.84
2019-05-09T13:27:15.643Z,40.96
2019-05-09T13:30:38.825Z,40.72
2019-05-09T13:34:02.022Z,40.41
2019-05-09T13:37:29.369Z,38.15
2019-05-09T13:40:53.470Z,36.48
2019-05-09T13:44:17.857Z,36.95
2019-05-09T13:47:40.871Z,39.45
2019-05-09T13:51:04.056Z,38.28
2019-05-09T13:54:28.511Z,38.91
2019-05-09T13:57:51.841Z,42.27
2019-05-09T14:01:17.417Z,41.15
2019-05-09T14:04:40.342Z,43.06
2019-05-09T14:08:04.454Z,42.87
2019-05-09T14:11:29.203Z,43.73
2019-05-09T14:14:52.517Z,45.55
2019-05-09T14:18:16.630Z,44.57
2019-05-09T14:21:40.729Z,46.01
2019-05-09T14:25:07.166Z,44.78
2019-05-09T14:28:29.291Z,44.79
2019-05-09T14:31:52.390Z,46.47
2019-05-09T14:35:17.946Z,46.39
2019-05-09T14:38:40.509Z,46.15
2019-05-09T14:42:03.598Z,45.22
2019-05-09T14:45:27.990Z,43.06
2019-05-09T14:48:51.126Z,41.52
2019-05-09T14:52:14.141Z,40.51
2019-05-09T14:55:38.804Z,38.15
2019-05-09T14:59:02.227Z,39.34
2019-05-09T15:02:25.299Z,38.20
2019-05-09T15:05:48.425Z,34.46
2019-05-09T15:09:11.447Z,34.32
2019-05-09T15:12:34.656Z,31.67
2019-05-09T15:15:58.033Z,29.74
2019-05-09T15:19:21.283Z,33.46
2019-05-09T15:22:44.377Z,35.89
2019-05-09T15:26:07.809Z,35.08
2019-05-09T15:29:31.105Z,31.89
2019-05-09T15:32:54.183Z,35.24
2019-05-09T15:36:19.217Z,38.40
2019-05-09T15:39:42.403Z,33.88
2019-05-09T15:43:08.136Z,29.63
2019-05-09T15:46:38.420Z,28.07
2019-05-09T15:50:15.481Z,24.49
2019-05-09T15:53:27.828Z,26.82
2019-05-09T15:56:50.976Z,29.39
2019-05-09T16:00:19.084Z,31.92
2019-05-09T16:03:43.226Z,36.33
2019-05-09T16:07:06.325Z,39.54
2019-05-09T16:10:29.702Z,39.94
2019-05-09T16:13:53.532Z,40.77
2019-05-09T16:17:19.102Z,42.21
2019-05-09T16:20:42.600Z,44.60
2019-05-09T16:24:08.168Z,42.40
2019-05-09T16:27:31.028Z,42.64
2019-05-09T16:30:58.562Z,43.67
2019-05-09T16:34:21.693Z,44.71
2019-05-09T16:38:00.792Z,45.47
2019-05-09T16:41:12.031Z,46.49
2019-05-09T16:44:41.713Z,45.60
2019-05-09T16:48:04.748Z,45.56
2019-05-09T16:51:28.859Z,47.13
2019-05-09T16:55:02.865Z,45.07
2019-05-09T16:58:27.442Z,43.61
2019-05-09T17:01:50.734Z,43.63
2019-05-09T17:05:14.069Z,44.71
2019-05-09T17:08:38.557Z,45.64
2019-05-09T17:12:01.636Z,47.04
2019-05-09T17:15:25.059Z,48.28
2019-05-09T17:18:50.014Z,46.98
2019-05-09T17:22:17.811Z,48.06
2019-05-09T17:25:40.789Z,49.41
2019-05-09T17:29:03.934Z,47.77
2019-05-09T17:32:28.506Z,48.56
2019-05-09T17:35:51.742Z,48.16
2019-05-09T17:39:15.087Z,49.06
2019-05-09T17:42:38.305Z,48.70
2019-05-09T17:46:01.834Z,49.73
2019-05-09T17:49:24.892Z,52.41
2019-05-09T17:52:48.212Z,52.18
2019-05-09T17:56:11.343Z,50.42
2019-05-09T17:59:34.575Z,51.30
2019-05-09T18:02:58.045Z,51.22
2019-05-09T18:06:21.247Z,51.95
2019-05-09T18:09:45.419Z,54.67
2019-05-09T18:13:08.416Z,53.82
2019-05-09T18:16:31.493Z,55.49
2019-05-09T18:19:54.685Z,54.07
2019-05-09T18:23:22.656Z,53.38
2019-05-09T18:26:47.445Z,57.93
2019-05-09T18:30:10.904Z,55.78
2019-05-09T18:33:58.216Z,53.12
2019-05-09T18:37:21.915Z,53.08
2019-05-09T18:40:45.021Z,56.06
2019-05-09T18:44:08.315Z,57.73
2019-05-09T18:47:31.390Z,59.30
2019-05-09T18:50:54.437Z,55.89
2019-05-09T18:54:17.656Z,55.62
2019-05-09T18:57:40.707Z,64.11
2019-05-09T19:01:03.994Z,70.97
2019-05-09T19:04:27.826Z,74.37
2019-05-09T19:07:50.978Z,76.91
2019-05-09T19:11:14.452Z,78.43
2019-05-09T19:14:37.732Z,80.16
2019-05-09T19:18:07.545Z,81.30
2019-05-09T19:21:37.484Z,80.77
2019-05-09T19:25:00.837Z,82.21
2019-05-09T19:28:24.539Z,83.48
2019-05-09T19:31:48.130Z,83.37
2019-05-09T19:35:11.790Z,82.08
2019-05-09T19:38:34.953Z,82.72
2019-05-09T19:41:59.386Z,83.41
2019-05-09T19:45:22.954Z,82.12
2019-05-09T19:48:46.674Z,83.64
2019-05-09T19:52:10.507Z,83.04
2019-05-09T19:55:36.361Z,81.95
2019-05-09T19:59:02.428Z,83.05
2019-05-09T20:02:25.552Z,83.00
2019-05-09T20:05:48.620Z,83.70
2019-05-09T20:09:19.001Z,83.88
2019-05-09T20:12:48.178Z,83.91
2019-05-09T20:16:11.606Z,82.24
2019-05-09T20:19:34.689Z,82.77
2019-05-09T20:22:58.038Z,81.78
2019-05-09T20:26:21.374Z,82.26
2019-05-09T20:29:44.462Z,81.79
2019-05-09T20:33:08.836Z,81.70
2019-05-09T20:36:31.919Z,82.04
2019-05-09T20:39:55.025Z,82.33
2019-05-09T20:43:18.128Z,82.18
2019-05-09T20:46:41.269Z,83.73
2019-05-09T20:50:04.413Z,84.28
2019-05-09T20:53:27.719Z,84.63
2019-05-09T20:56:50.830Z,84.45
2019-05-09T21:00:13.917Z,84.76
2019-05-09T21:03:36.956Z,83.32
2019-05-09T21:07:00.031Z,84.50
2019-05-09T21:10:25.099Z,84.50
2019-05-09T21:13:49.124Z,84.05
2019-05-09T21:17:12.519Z,82.02
2019-05-09T21:20:35.739Z,81.32
2019-05-09T21:23:58.886Z,80.61
2019-05-09T21:27:22.002Z,79.85
2019-05-09T21:30:45.097Z,81.16
2019-05-09T21:34:08.131Z,80.40
2019-05-09T21:37:31.155Z,78.19
2019-05-09T21:40:54.292Z,78.99
2019-05-09T21:44:17.396Z,79.01
2019-05-09T21:47:40.490Z,80.21
2019-05-09T21:51:03.608Z,78.66
2019-05-09T21:54:26.699Z,78.67
2019-05-09T21:57:49.788Z,79.52
2019-05-09T22:01:16.781Z,78.73
2019-05-09T22:04:39.989Z,79.55
2019-05-09T22:08:04.153Z,79.72
2019-05-09T22:11:29.840Z,80.74
2019-05-09T22:14:53.106Z,79.86
2019-05-09T22:18:16.390Z,79.52
2019-05-09T22:21:39.587Z,77.22
2019-05-09T22:25:02.807Z,78.37
2019-05-09T22:28:26.266Z,78.41
2019-05-09T22:31:49.455Z,78.45
2019-05-09T22:35:12.993Z,77.23
2019-05-09T22:38:36.062Z,78.53
2019-05-09T22:42:00.415Z,77.60
2019-05-09T22:45:23.516Z,76.24
2019-05-09T22:48:47.412Z,76.28
2019-05-09T22:52:10.637Z,76.13
2019-05-09T22:55:33.683Z,75.22
2019-05-09T22:58:56.698Z,74.34
2019-05-09T23:02:19.832Z,73.83
2019-05-09T23:05:43.032Z,74.50
2019-05-09T23:09:06.983Z,75.50
2019-05-09T23:12:30.005Z,76.45
2019-05-09T23:15:53.094Z,75.87
2019-05-09T23:19:16.144Z,75.50
2019-05-09T23:22:39.249Z,74.99
2019-05-09T23:26:02.271Z,74.71
2019-05-09T23:29:25.273Z,75.22
2019-05-09T23:32:49.277Z,74.92
2019-05-09T23:36:12.612Z,74.74
2019-05-09T23:39:41.440Z,74.93
2019-05-09T23:43:04.443Z,73.72
2019-05-09T23:46:30.510Z,72.44
2019-05-09T23:49:53.557Z,72.92
2019-05-09T23:53:33.195Z,73.86
2019-05-09T23:57:14.923Z,73.61
